Time;durP1;ratioP1;P1;durP2;ratioP2;P2;SDS_P1;SDS_P2;PMS_P1;PMS_P2;Temp;Humidity;BMP_temperature;BMP_pressure;BME280_temperature;BME280_humidity;BME280_pressure;Samples;Min_cycle;Max_cycle;Signal;HPM_P1;HPM_P2
2022/08/05 00:01:26;;;;;;;;;6.67;5.00;;;;;22.25;61.36;100922.09;5001158;28;47820;-65
2022/08/05 00:03:51;;;;;;;;;4.33;3.00;;;;;21.98;61.18;100937.56;4997469;28;45506;-65
2022/08/05 00:06:17;;;;;;;;;3.00;3.00;;;;;22.00;61.29;101006.69;4998423;28;45735;-65
2022/08/05 00:08:43;;;;;;;;;3.00;2.33;;;;;22.04;61.41;101067.56;4998816;28;45330;-64
2022/08/05 00:11:11;;;;;;;;;6.00;4.00;;;;;22.12;62.00;101153.97;5011932;28;46294;-65
2022/08/05 00:13:38;;;;;;;;;5.00;5.00;;;;;22.05;62.99;101150.47;5018037;28;45242;-65
2022/08/05 00:16:05;;;;;;;;;4.67;4.67;;;;;22.17;62.65;101175.84;5018266;28;45250;-64
2022/08/05 00:18:30;;;;;;;;;6.00;5.00;;;;;22.33;62.42;101203.53;5010559;28;45416;-64
2022/08/05 00:20:56;;;;;;;;;3.33;3.33;;;;;22.40;62.17;101179.97;5025941;28;47012;-65
2022/08/05 00:23:23;;;;;;;;;5.00;3.67;;;;;22.48;61.25;101128.28;5017589;28;45317;-65
2022/08/05 00:25:49;;;;;;;;;5.33;4.33;;;;;22.42;60.64;101134.53;5017974;28;45280;-65
2022/08/05 00:28:15;;;;;;;;;4.67;4.67;;;;;22.52;61.24;101153.91;5010070;28;45540;-64
2022/08/05 00:30:40;;;;;;;;;5.33;5.33;;;;;22.50;61.87;101201.22;4998036;28;45695;-65
2022/08/05 00:33:06;;;;;;;;;5.00;5.00;;;;;22.63;61.71;101128.88;5003703;28;45275;-64
2022/08/05 00:35:32;;;;;;;;;4.00;3.67;;;;;22.62;61.35;101053.19;4998170;28;45437;-66
2022/08/05 00:37:57;;;;;;;;;7.00;4.67;;;;;22.44;61.33;101108.94;5002067;28;45711;-66
2022/08/05 00:40:24;;;;;;;;;5.00;5.00;;;;;22.62;61.49;101203.06;5017752;28;45523;-66
2022/08/05 00:42:49;;;;;;;;;6.00;5.00;;;;;22.61;61.50;101243.94;5017712;28;45378;-65
2022/08/05 00:45:15;;;;;;;;;4.00;3.00;;;;;22.67;61.12;101241.22;4999972;28;45603;-64
2022/08/05 00:47:40;;;;;;;;;6.00;4.00;;;;;22.57;61.38;101164.94;5017312;28;45473;-64
2022/08/05 00:50:07;;;;;;;;;5.00;5.00;;;;;22.56;60.10;101114.50;5017009;28;45717;-65
2022/08/05 00:52:32;;;;;;;;;6.67;6.00;;;;;22.70;60.69;101169.50;5017406;28;45582;-64
2022/08/05 00:54:58;;;;;;;;;4.67;4.67;;;;;22.70;60.21;101126.13;5017061;28;45306;-66
2022/08/05 00:57:23;;;;;;;;;5.00;5.00;;;;;22.56;59.89;101095.53;5016507;28;45279;-65
2022/08/05 00:59:49;;;;;;;;;12.67;6.67;;;;;22.54;60.11;101116.59;5000184;28;45772;-65
2022/08/05 01:02:14;;;;;;;;;4.00;4.00;;;;;22.59;60.48;101244.16;4997461;28;45286;-65
2022/08/05 01:04:39;;;;;;;;;4.00;4.00;;;;;22.59;60.63;101230.59;4996277;28;45882;-65
2022/08/05 01:07:05;;;;;;;;;5.33;4.00;;;;;22.56;60.52;101162.44;4998114;28;45228;-64
2022/08/05 01:09:30;;;;;;;;;4.00;4.00;;;;;22.05;60.04;101030.50;4997155;28;46594;-64
2022/08/05 01:12:01;;;;;;;;;3.67;3.67;;;;;22.32;59.66;101055.59;4997563;28;45224;-64
2022/08/05 01:14:44;;;;;;;;;3.00;3.00;;;;;22.26;60.33;101145.84;4997613;28;45473;-64
2022/08/05 01:17:49;;;;;;;;;4.00;3.00;;;;;22.20;61.97;101195.41;4997649;28;45594;-64
2022/08/05 01:20:48;;;;;;;;;4.33;3.67;;;;;22.29;61.62;101196.88;4997152;28;45891;-63
2022/08/05 01:23:37;;;;;;;;;3.67;3.00;;;;;22.35;61.35;101190.63;4998965;28;45770;-64
2022/08/05 01:26:34;;;;;;;;;4.00;4.00;;;;;22.36;61.20;101208.53;5017293;28;45309;-64
2022/08/05 01:29:20;;;;;;;;;3.00;3.00;;;;;22.31;60.79;101165.00;5014824;28;45449;-65
2022/08/05 01:31:51;;;;;;;;;6.00;3.00;;;;;22.17;59.93;101104.59;5016877;28;45776;-65
2022/08/05 01:34:30;;;;;;;;;3.00;3.00;;;;;22.12;59.52;101097.13;5016990;28;45247;-65
2022/08/05 01:37:15;;;;;;;;;4.00;4.00;;;;;21.39;60.04;100984.53;5015726;28;45553;-65
2022/08/05 01:39:45;;;;;;;;;6.00;4.00;;;;;21.92;59.05;101071.91;5017222;28;45466;-65
2022/08/05 01:42:13;;;;;;;;;3.00;3.00;;;;;21.89;59.15;101045.28;5016768;28;46450;-65
2022/08/05 01:44:39;;;;;;;;;6.00;5.00;;;;;21.62;59.85;101057.97;5016839;28;45573;-65
2022/08/05 01:47:06;;;;;;;;;3.00;3.00;;;;;21.56;60.48;101083.16;5016253;28;45532;-66
2022/08/05 01:49:34;;;;;;;;;2.00;2.00;;;;;21.74;60.10;101087.97;5015853;28;45372;-65
2022/08/05 01:52:01;;;;;;;;;5.00;4.00;;;;;21.61;59.71;101085.25;5016404;28;46527;-64
2022/08/05 01:54:38;;;;;;;;;3.00;3.00;;;;;21.76;59.93;101129.19;4998373;28;46264;-64
2022/08/05 01:57:05;;;;;;;;;4.00;3.00;;;;;21.89;61.61;101118.34;4998928;28;45302;-65
2022/08/05 01:59:33;;;;;;;;;3.33;3.33;;;;;21.94;62.29;101110.44;4997079;28;45349;-65
2022/08/05 02:02:00;;;;;;;;;3.33;2.00;;;;;22.00;60.96;101108.75;5012431;28;46014;-65
2022/08/05 02:04:27;;;;;;;;;4.67;3.67;;;;;22.07;61.86;101115.03;5015667;28;45475;-64
2022/08/05 02:06:54;;;;;;;;;3.67;3.67;;;;;21.70;62.32;101081.31;4999476;28;45490;-65
2022/08/05 02:09:19;;;;;;;;;5.00;5.00;;;;;22.00;62.14;101120.41;4996896;28;45440;-65
2022/08/05 02:11:58;;;;;;;;;5.67;3.33;;;;;21.91;60.28;101091.06;4996604;28;46545;-65
2022/08/05 02:14:31;;;;;;;;;4.00;4.00;;;;;22.02;61.90;101145.41;4996618;28;45222;-65
2022/08/05 02:17:04;;;;;;;;;3.00;3.00;;;;;22.03;61.14;101151.69;5013624;28;45258;-65
2022/08/05 02:19:33;;;;;;;;;4.00;4.00;;;;;22.03;61.01;101125.44;5016632;28;45227;-64
2022/08/05 02:22:15;;;;;;;;;3.00;3.00;;;;;21.97;61.07;101115.44;5016265;28;46844;-64
2022/08/05 02:24:43;;;;;;;;;3.33;3.33;;;;;;;;5002081;28;45461;-64
2022/08/05 02:27:10;;;;;;;;;4.00;4.00;;;;;22.10;61.41;101150.66;5000726;28;45236;-64
2022/08/05 02:29:39;;;;;;;;;4.67;3.00;;;;;22.12;61.34;101155.84;5019908;28;45231;-64
2022/08/05 02:32:08;;;;;;;;;2.00;2.00;;;;;21.95;61.14;101125.63;5019508;28;45534;-65
2022/08/05 02:34:36;;;;;;;;;3.33;3.33;;;;;22.14;61.63;101170.84;5001686;28;45601;-64
2022/08/05 02:37:04;;;;;;;;;3.00;3.00;;;;;22.16;61.45;101178.75;5019589;28;45516;-65
2022/08/05 02:39:35;;;;;;;;;2.00;1.33;;;;;22.15;60.63;101161.69;5019685;28;45491;-64
2022/08/05 02:42:02;;;;;;;;;2.33;2.33;;;;;22.11;60.75;101154.19;5000783;28;46752;-65
2022/08/05 02:44:30;;;;;;;;;4.00;4.00;;;;;22.15;59.95;101179.81;5019498;28;46003;-64
2022/08/05 02:46:58;;;;;;;;;4.00;4.00;;;;;22.08;60.67;101093.16;5019755;28;45533;-64
2022/08/05 02:49:26;;;;;;;;;5.67;4.33;;;;;21.97;59.32;101055.88;5019459;28;45547;-65
2022/08/05 02:51:52;;;;;;;;;2.67;2.33;;;;;21.97;60.11;101082.94;5018630;28;46411;-64
2022/08/05 02:54:20;;;;;;;;;4.00;3.00;;;;;21.91;60.03;101091.91;5017059;28;46863;-66
2022/08/05 02:56:46;;;;;;;;;5.00;4.00;;;;;21.93;60.92;101095.22;5016627;28;45287;-64
2022/08/05 02:59:12;;;;;;;;;2.33;2.33;;;;;21.92;60.47;101096.28;5018581;28;45516;-65
2022/08/05 03:01:40;;;;;;;;;2.67;2.67;;;;;21.89;60.06;101110.22;5011007;28;46823;-64
2022/08/05 03:04:09;;;;;;;;;3.00;3.00;;;;;21.88;59.84;101110.44;5016695;28;45184;-65
2022/08/05 03:06:36;;;;;;;;;4.00;4.00;;;;;21.84;60.73;101123.56;5018217;28;45585;-64
2022/08/05 03:09:02;;;;;;;;;6.00;3.33;;;;;21.83;59.87;101141.69;5018442;28;45476;-65
2022/08/05 03:11:27;;;;;;;;;2.33;2.33;;;;;21.80;59.65;101141.25;5013158;28;46474;-65
2022/08/05 03:13:53;;;;;;;;;5.00;4.00;;;;;21.89;60.61;101150.00;5001972;28;45544;-73
2022/08/05 03:16:19;;;;;;;;;3.33;2.00;;;;;21.84;59.40;101153.34;4997809;28;45305;-64
2022/08/05 03:18:45;;;;;;;;;2.33;2.33;;;;;21.78;59.37;101148.75;4998253;28;45448;-64
2022/08/05 03:21:11;;;;;;;;;5.00;3.00;;;;;21.66;58.86;101107.97;4999104;28;45675;-64
2022/08/05 03:23:39;;;;;;;;;3.67;2.67;;;;;21.63;59.21;101102.97;5013543;28;45448;-64
2022/08/05 03:26:05;;;;;;;;;3.67;2.67;;;;;21.65;58.94;101125.22;5016918;28;45494;-64
2022/08/05 03:28:31;;;;;;;;;2.67;2.67;;;;;21.64;58.49;101147.09;5017362;28;45265;-64
2022/08/05 03:30:59;;;;;;;;;4.00;3.00;;;;;21.52;59.09;101128.75;4988335;28;46693;-67
2022/08/05 03:33:26;;;;;;;;;2.33;2.33;;;;;21.62;59.51;101127.50;5017404;28;46494;-64
2022/08/05 03:35:52;;;;;;;;;3.67;3.67;;;;;21.66;59.05;101121.50;5017754;28;45456;-66
2022/08/05 03:38:18;;;;;;;;;2.67;2.67;;;;;21.72;58.86;101138.75;5006612;28;45484;-65
2022/08/05 03:40:45;;;;;;;;;3.33;2.00;;;;;21.71;59.56;101153.34;5016787;28;47908;-64
2022/08/05 03:43:11;;;;;;;;;3.00;3.00;;;;;21.63;58.84;101157.09;5013084;28;45384;-65
2022/08/05 03:45:36;;;;;;;;;4.00;4.00;;;;;21.64;59.25;101156.03;5017433;28;45311;-64
2022/08/05 03:48:02;;;;;;;;;3.00;3.00;;;;;21.70;59.77;101151.66;5014265;28;45511;-65
2022/08/05 03:50:39;;;;;;;;;4.00;4.00;;;;;21.59;59.80;101128.75;4997526;28;46735;-65
2022/08/05 03:53:24;;;;;;;;;3.33;3.00;;;;;21.70;59.04;101146.25;4969656;28;1219487;-65
2022/08/05 03:55:56;;;;;;;;;4.67;4.00;;;;;21.77;59.52;101157.91;5001269;28;45287;-65
2022/08/05 03:58:26;;;;;;;;;4.00;4.00;;;;;21.77;59.86;101166.03;4998870;28;45407;-66
2022/08/05 04:00:54;;;;;;;;;2.00;2.00;;;;;21.79;60.71;101153.13;4997370;28;47375;-65
2022/08/05 04:03:21;;;;;;;;;2.67;2.67;;;;;21.79;59.72;101139.59;5016009;28;45606;-65
2022/08/05 04:05:47;;;;;;;;;3.33;2.00;;;;;21.72;58.84;101120.66;5018311;28;45331;-64
2022/08/05 04:08:13;;;;;;;;;4.00;4.00;;;;;21.79;59.02;101135.00;5002098;28;45367;-66
2022/08/05 04:10:40;;;;;;;;;5.67;4.33;;;;;21.75;58.50;101125.63;4998941;28;45269;-64
2022/08/05 04:13:06;;;;;;;;;5.00;4.33;;;;;21.76;58.13;101134.59;5015943;28;45530;-64
2022/08/05 04:15:32;;;;;;;;;6.00;4.00;;;;;21.67;57.45;101116.91;5013559;28;45585;-65
2022/08/05 04:18:01;;;;;;;;;2.00;2.00;;;;;21.21;57.15;101052.72;5016501;28;45555;-65
2022/08/05 04:20:27;;;;;;;;;1.67;1.67;;;;;21.65;57.27;101132.53;5007766;28;45904;-66
2022/08/05 04:22:52;;;;;;;;;1.00;1.00;;;;;21.70;57.58;101148.97;4997717;28;47040;-66
2022/08/05 04:25:18;;;;;;;;;5.67;5.67;;;;;21.67;57.54;101146.66;5009058;28;45527;-65
2022/08/05 04:27:44;;;;;;;;;4.00;4.00;;;;;21.64;57.60;101152.50;5018183;28;45220;-65
2022/08/05 04:30:09;;;;;;;;;6.67;3.33;;;;;21.38;58.09;101100.00;5013853;28;46173;-66
2022/08/05 04:32:35;;;;;;;;;3.33;3.33;;;;;21.66;58.08;101145.00;4999827;28;45349;-65
2022/08/05 04:35:01;;;;;;;;;4.67;4.67;;;;;21.56;58.33;101124.59;5016904;28;45399;-65
2022/08/05 04:37:26;;;;;;;;;4.67;4.00;;;;;20.96;58.10;101042.50;5015817;28;45354;-65
2022/08/05 04:39:51;;;;;;;;;5.00;4.00;;;;;21.13;58.90;101069.16;5010507;28;47724;-67
2022/08/05 04:42:17;;;;;;;;;5.00;5.00;;;;;21.42;59.78;101136.41;4997851;28;45494;-65
2022/08/05 04:44:42;;;;;;;;;5.00;3.33;;;;;21.44;59.95;101126.25;4998737;28;45449;-65
2022/08/05 04:47:07;;;;;;;;;4.67;3.00;;;;;21.50;59.88;101141.66;5016602;28;45563;-65
2022/08/05 04:49:33;;;;;;;;;5.00;5.00;;;;;21.53;59.90;101152.06;5016140;28;45830;-66
2022/08/05 04:51:58;;;;;;;;;5.33;4.00;;;;;21.55;59.20;101155.38;4997687;28;45212;-65
2022/08/05 04:54:26;;;;;;;;;4.67;3.33;;;;;21.04;59.05;101081.22;5013209;28;45666;-65
2022/08/05 04:56:52;;;;;;;;;6.00;4.67;;;;;21.53;59.63;101172.88;4997752;28;45346;-65
2022/08/05 04:59:19;;;;;;;;;6.00;3.00;;;;;21.48;58.47;101165.38;4997512;28;45712;-66
2022/08/05 05:01:44;;;;;;;;;4.00;4.00;;;;;21.29;58.50;101139.13;4998677;28;45488;-65
2022/08/05 05:04:10;;;;;;;;;4.00;2.67;;;;;21.42;58.27;101166.19;4997652;28;45168;-65
2022/08/05 05:06:35;;;;;;;;;8.00;4.00;;;;;21.47;59.06;101166.41;4985310;28;45568;-65
2022/08/05 05:09:00;;;;;;;;;3.33;3.33;;;;;21.51;58.18;101169.53;5016096;28;48348;-66
2022/08/05 05:11:26;;;;;;;;;5.00;5.00;;;;;21.55;58.38;101176.19;5010977;28;56397;-65
2022/08/05 05:13:51;;;;;;;;;4.00;3.00;;;;;21.56;57.60;101177.88;5009295;28;45531;-66
2022/08/05 05:16:17;;;;;;;;;5.33;5.33;;;;;21.29;57.74;101131.00;5004394;28;45507;-65
2022/08/05 05:18:42;;;;;;;;;4.33;4.33;;;;;21.37;57.58;101152.44;5012860;28;46635;-66
2022/08/05 05:21:07;;;;;;;;;4.00;4.00;;;;;21.59;57.65;101192.84;5008282;28;45282;-65
2022/08/05 05:23:33;;;;;;;;;5.00;2.67;;;;;21.58;57.42;101191.19;5007714;28;45365;-65
2022/08/05 05:25:58;;;;;;;;;4.00;3.67;;;;;21.59;57.21;101196.38;5016652;28;45301;-65
2022/08/05 05:28:23;;;;;;;;;5.00;4.00;;;;;21.59;57.24;101190.97;4995144;28;48849;-66
2022/08/05 05:30:49;;;;;;;;;3.33;3.33;;;;;21.60;57.06;101197.22;4997079;28;45352;-65
2022/08/05 05:33:14;;;;;;;;;4.33;3.67;;;;;21.59;56.91;101209.91;5007638;28;45525;-65
2022/08/05 05:35:40;;;;;;;;;2.67;2.67;;;;;21.69;57.05;101198.72;5017159;28;45434;-66
2022/08/05 05:38:06;;;;;;;;;4.00;3.00;;;;;21.70;56.78;101211.19;5007943;28;46173;-66
2022/08/05 05:40:32;;;;;;;;;3.00;3.00;;;;;21.70;56.74;101201.22;4996861;28;45213;-66
2022/08/05 05:42:59;;;;;;;;;5.00;4.00;;;;;21.86;56.71;101222.47;5007260;28;45543;-66
2022/08/05 05:45:24;;;;;;;;;4.00;4.00;;;;;21.89;56.53;101225.81;4995462;28;45590;-66
2022/08/05 05:47:50;;;;;;;;;3.00;3.00;;;;;21.89;56.41;101226.63;4996574;28;45728;-65
2022/08/05 05:50:18;;;;;;;;;4.00;3.33;;;;;21.87;56.31;101212.47;4996807;28;45629;-65
2022/08/05 05:52:44;;;;;;;;;3.00;3.00;;;;;22.01;56.04;101230.38;4998410;28;45357;-66
2022/08/05 05:55:12;;;;;;;;;4.00;4.00;;;;;22.10;55.96;101228.34;5013582;28;45576;-66
2022/08/05 05:57:39;;;;;;;;;4.00;4.00;;;;;22.14;55.51;101225.00;5014997;28;47490;-66
2022/08/05 06:00:10;;;;;;;;;4.00;4.00;;;;;21.74;55.69;101139.38;4997620;28;45555;-70
2022/08/05 06:02:36;;;;;;;;;5.00;5.00;;;;;22.29;55.60;101210.44;5001592;28;45611;-66
2022/08/05 06:05:02;;;;;;;;;5.00;5.00;;;;;22.50;55.52;101239.16;5020558;28;45523;-66
2022/08/05 06:07:27;;;;;;;;;4.00;4.00;;;;;22.57;55.01;101246.22;5020068;28;46542;-66
2022/08/05 06:09:53;;;;;;;;;5.00;4.33;;;;;22.66;54.63;101241.44;5018785;28;45384;-66
2022/08/05 06:12:18;;;;;;;;;3.00;3.00;;;;;22.71;54.49;101245.19;5000426;28;45862;-66
2022/08/05 06:14:44;;;;;;;;;6.00;5.67;;;;;22.64;53.82;101238.94;5000536;28;45398;-68
2022/08/05 06:17:10;;;;;;;;;5.67;4.33;;;;;22.75;54.01;101249.13;4999943;28;46005;-67
2022/08/05 06:19:36;;;;;;;;;5.33;4.00;;;;;22.81;53.63;101261.00;5012749;28;45207;-71
2022/08/05 06:22:03;;;;;;;;;3.00;3.00;;;;;22.75;53.83;101257.25;5019303;28;45200;-67
2022/08/05 06:24:28;;;;;;;;;4.00;3.00;;;;;23.09;53.69;101277.03;5020453;28;45533;-67
2022/08/05 06:26:54;;;;;;;;;4.00;4.00;;;;;23.71;51.37;101259.25;5019816;28;46302;-68
2022/08/05 06:29:20;;;;;;;;;6.00;5.00;;;;;24.48;50.36;101262.69;5013459;28;45542;-67
2022/08/05 06:31:45;;;;;;;;;5.33;5.00;;;;;25.18;48.41;101255.03;5001685;28;45528;-66
2022/08/05 06:34:11;;;;;;;;;5.00;4.00;;;;;25.85;47.00;101235.97;5008350;28;45311;-65
2022/08/05 06:36:36;;;;;;;;;8.33;8.00;;;;;26.62;45.12;101234.84;5019360;28;45605;-67
2022/08/05 06:39:02;;;;;;;;;6.00;5.00;;;;;27.55;43.72;101260.31;5007848;28;45436;-68
2022/08/05 06:41:27;;;;;;;;;3.67;3.67;;;;;28.20;41.53;101254.38;5001078;28;45497;-68
2022/08/05 06:43:53;;;;;;;;;4.33;4.33;;;;;28.77;40.20;101245.97;5000147;28;45281;-65
2022/08/05 06:46:18;;;;;;;;;3.67;3.67;;;;;29.54;39.57;101251.38;4999400;28;46138;-65
2022/08/05 06:48:43;;;;;;;;;7.00;6.00;;;;;30.19;38.56;101250.38;4999640;28;45298;-65
2022/08/05 06:51:09;;;;;;;;;5.67;5.67;;;;;30.81;37.00;101254.38;4985834;28;45483;-68
2022/08/05 06:53:34;;;;;;;;;6.00;6.00;;;;;30.98;36.00;101200.09;5009485;28;45571;-65
2022/08/05 06:56:02;;;;;;;;;5.00;4.00;;;;;31.77;34.53;101246.53;5007854;28;49487;-65
2022/08/05 06:58:28;;;;;;;;;5.67;4.00;;;;;32.17;33.57;101252.31;5001821;28;45535;-65
2022/08/05 07:00:53;;;;;;;;;5.00;5.00;;;;;32.53;32.61;101253.97;5011248;28;45498;-65
2022/08/05 07:03:18;;;;;;;;;4.33;3.67;;;;;32.64;32.18;101205.22;5014814;28;45446;-64
2022/08/05 07:05:44;;;;;;;;;4.67;4.67;;;;;33.25;31.41;101257.34;5016985;28;45724;-66
2022/08/05 07:08:10;;;;;;;;;4.33;4.33;;;;;33.53;31.12;101240.09;5018730;28;45400;-66
2022/08/05 07:10:36;;;;;;;;;4.00;3.00;;;;;33.89;29.64;101252.88;5018341;28;45341;-67
2022/08/05 07:18:29;;;;;;;;;6.67;6.00;;;;;34.85;28.12;101276.03;5009087;28;45699;-65
2022/08/05 07:20:55;;;;;;;;;4.00;4.00;;;;;35.03;28.16;101275.25;5012096;28;45572;-65
2022/08/05 07:23:20;;;;;;;;;4.00;4.00;;;;;35.35;27.88;101252.47;4995759;28;45574;-66
2022/08/05 07:25:45;;;;;;;;;6.00;5.67;;;;;35.81;27.09;101277.50;5018788;28;45952;-66
2022/08/05 07:28:11;;;;;;;;;4.00;4.00;;;;;35.76;26.64;101211.19;5007669;28;45579;-65
2022/08/05 07:30:36;;;;;;;;;5.33;5.00;;;;;36.27;26.06;101218.66;5004654;28;45482;-65
2022/08/05 07:33:04;;;;;;;;;4.33;4.33;;;;;36.92;25.47;101240.72;5013492;28;45464;-65
2022/08/05 07:35:29;;;;;;;;;5.33;5.33;;;;;37.32;24.52;101282.59;5014013;28;46667;-67
2022/08/05 07:37:55;;;;;;;;;4.67;4.67;;;;;37.56;24.34;101291.47;5017470;28;45460;-66
2022/08/05 07:40:20;;;;;;;;;5.00;3.67;;;;;38.00;24.47;101276.00;5000266;28;45408;-66
2022/08/05 07:42:47;;;;;;;;;5.33;4.00;;;;;38.28;23.29;101266.44;5011910;28;45592;-67
2022/08/05 07:45:12;;;;;;;;;4.33;4.33;;;;;38.92;23.58;101302.25;5013915;28;46571;-71
2022/08/05 07:47:38;;;;;;;;;6.33;4.67;;;;;39.26;22.70;101309.09;5004875;28;45953;-69
2022/08/05 07:50:03;;;;;;;;;4.33;4.33;;;;;39.49;22.25;101294.72;4998297;28;45622;-68
2022/08/05 07:52:29;;;;;;;;;7.00;5.33;;;;;39.83;21.71;101304.25;5014741;28;46660;-66
2022/08/05 07:54:55;;;;;;;;;7.00;4.33;;;;;39.72;21.88;101289.84;5020579;28;45742;-69
2022/08/05 07:57:21;;;;;;;;;5.33;5.00;;;;;39.86;21.58;101300.00;5017937;28;45420;-69
2022/08/05 07:59:46;;;;;;;;;5.33;4.33;;;;;39.99;21.69;101313.78;5019343;28;45420;-69
2022/08/05 08:02:11;;;;;;;;;5.00;5.00;;;;;39.75;21.68;101307.84;5010224;28;45449;-72
2022/08/05 08:04:37;;;;;;;;;8.67;4.00;;;;;39.71;21.94;101306.88;5009803;28;47638;-69
2022/08/05 08:07:02;;;;;;;;;4.67;4.67;;;;;39.87;21.77;101318.34;5002995;28;45461;-68
2022/08/05 08:09:27;;;;;;;;;5.00;3.67;;;;;39.93;21.76;101317.84;5016938;28;45358;-66
2022/08/05 08:11:53;;;;;;;;;4.00;4.00;;;;;39.88;21.28;101301.31;5015801;28;45286;-65
2022/08/05 08:14:18;;;;;;;;;5.00;5.00;;;;;40.04;21.55;101321.94;5013711;28;45972;-65
2022/08/05 08:16:44;;;;;;;;;7.00;7.00;;;;;40.04;21.92;101321.94;5016909;28;45485;-66
2022/08/05 08:19:09;;;;;;;;;5.33;5.00;;;;;40.10;21.35;101336.56;5017318;28;45361;-66
2022/08/05 08:21:35;;;;;;;;;8.67;6.33;;;;;40.13;21.55;101333.91;5010805;28;45144;-66
2022/08/05 08:24:01;;;;;;;;;4.00;4.00;;;;;40.24;21.62;101330.78;5015337;28;46641;-66
2022/08/05 08:26:26;;;;;;;;;3.67;3.67;;;;;40.28;21.26;101332.59;5008548;28;45345;-66
2022/08/05 08:28:54;;;;;;;;;7.00;6.00;;;;;40.27;21.73;101332.94;5013807;28;46506;-65
2022/08/05 08:31:19;;;;;;;;;6.00;4.67;;;;;40.33;20.79;101335.19;5016852;28;45346;-66
2022/08/05 08:33:45;;;;;;;;;5.00;4.00;;;;;40.35;20.65;101323.72;5013912;28;49038;-66
2022/08/05 08:36:11;;;;;;;;;4.67;4.67;;;;;40.40;21.15;101329.97;5015766;28;45548;-67
2022/08/05 08:38:36;;;;;;;;;6.00;5.00;;;;;40.41;21.20;101336.34;5016822;28;45394;-66
2022/08/05 08:41:08;;;;;;;;;3.67;3.67;;;;;40.37;20.96;101347.31;4997059;28;46170;-66
2022/08/05 08:43:36;;;;;;;;;3.00;3.00;;;;;40.35;19.73;101363.53;5009434;28;46350;-65
2022/08/05 08:46:03;;;;;;;;;5.00;5.00;;;;;39.26;20.84;101229.25;4997070;28;46254;-67
2022/08/05 08:48:30;;;;;;;;;4.67;4.67;;;;;39.97;20.62;101349.50;4997791;28;45326;-65
2022/08/05 08:50:56;;;;;;;;;5.00;4.00;;;;;40.28;20.83;101365.22;5015966;28;45537;-67
2022/08/05 08:53:24;;;;;;;;;4.00;4.00;;;;;40.33;19.80;101363.06;5015343;28;45944;-66
2022/08/05 08:55:49;;;;;;;;;3.33;3.33;;;;;40.16;20.04;101353.91;5014876;28;45482;-64
2022/08/05 08:58:15;;;;;;;;;5.00;5.00;;;;;40.38;19.63;101373.22;5014203;28;45433;-66
2022/08/05 09:00:41;;;;;;;;;4.00;4.00;;;;;40.43;20.25;101359.94;5014331;28;45615;-66
2022/08/05 09:03:12;;;;;;;;;5.00;5.00;;;;;40.67;19.42;101373.34;5011159;28;45429;-66
2022/08/05 09:05:38;;;;;;;;;5.00;3.33;;;;;40.61;19.51;101341.22;5013217;28;45496;-70
2022/08/05 09:08:03;;;;;;;;;7.67;4.00;;;;;40.84;19.66;101374.47;5016687;28;45703;-69
2022/08/05 09:10:29;;;;;;;;;6.00;5.00;;;;;40.80;18.86;101376.25;5013454;28;45358;-68
2022/08/05 09:12:56;;;;;;;;;10.00;7.00;;;;;40.93;18.99;101364.13;5011976;28;45446;-67
2022/08/05 09:15:21;;;;;;;;;4.33;4.33;;;;;41.15;18.70;101382.56;5011663;28;45567;-67
2022/08/05 09:17:47;;;;;;;;;2.00;1.00;;;;;41.22;18.62;101308.31;5001086;28;45662;-68
2022/08/05 09:20:13;;;;;;;;;4.33;4.33;;;;;42.12;17.92;101374.09;5009935;28;45470;-67
2022/08/05 09:23:13;;;;;;;;;3.67;3.00;;;;;42.76;17.22;101370.81;4997210;28;47707;-67
2022/08/05 09:25:42;;;;;;;;;7.67;5.33;;;;;43.18;17.02;101374.28;5013799;28;45762;-67
2022/08/05 09:28:11;;;;;;;;;5.00;5.00;;;;;44.08;16.21;101367.53;5012185;28;45435;-66
2022/08/05 09:30:37;;;;;;;;;4.33;4.33;;;;;45.01;15.73;101370.06;4998291;28;45534;-67
2022/08/05 09:33:03;;;;;;;;;5.67;4.00;;;;;45.64;14.20;101378.41;5014104;28;45836;-66
2022/08/05 09:35:28;;;;;;;;;3.67;3.67;;;;;46.22;14.01;101368.00;5014293;28;45784;-66
2022/08/05 09:37:55;;;;;;;;;3.00;3.00;;;;;47.08;13.52;101376.06;5014524;28;45396;-67
2022/08/05 09:40:39;;;;;;;;;4.33;4.33;;;;;47.97;12.10;101380.19;5012128;28;45481;-66
2022/08/05 09:43:06;;;;;;;;;5.00;5.00;;;;;48.56;11.71;101388.91;5011392;28;45834;-66
2022/08/05 09:45:38;;;;;;;;;7.67;4.67;;;;;49.04;12.32;101384.16;5010463;28;45502;-67
2022/08/05 09:48:26;;;;;;;;;5.67;4.00;;;;;49.58;11.14;101380.50;5015995;28;45400;-67
2022/08/05 09:50:56;;;;;;;;;5.33;5.00;;;;;49.96;11.44;101383.91;5015631;28;45547;-68
2022/08/05 09:53:21;;;;;;;;;6.33;4.67;;;;;49.70;10.38;101375.75;5015513;28;46642;-66
2022/08/05 09:55:51;;;;;;;;;6.67;6.67;;;;;49.35;11.11;101374.31;4996128;28;45586;-65
2022/08/05 09:58:17;;;;;;;;;5.00;5.00;;;;;49.09;10.94;101374.53;5007712;28;45428;-66
2022/08/05 10:01:01;;;;;;;;;6.00;6.00;;;;;48.59;11.12;101360.75;5014519;28;45343;-66
2022/08/05 10:03:27;;;;;;;;;7.00;7.00;;;;;48.34;11.72;101390.72;5014230;28;46483;-66
2022/08/05 10:06:05;;;;;;;;;9.33;7.00;;;;;47.20;12.10;101373.03;5012261;28;45515;-65
2022/08/05 10:08:31;;;;;;;;;5.67;5.67;;;;;46.43;13.84;101394.94;5012925;28;45405;-67
2022/08/05 10:10:57;;;;;;;;;7.00;6.67;;;;;45.45;13.85;101387.56;4995746;28;45241;-65
2022/08/05 10:13:29;;;;;;;;;9.00;9.00;;;;;44.15;15.55;101378.94;5013840;28;45959;-66
2022/08/05 10:15:57;;;;;;;;;8.67;8.00;;;;;42.54;16.10;101318.13;5010022;28;45488;-66
2022/08/05 10:18:24;;;;;;;;;7.33;7.33;;;;;41.50;17.37;101381.25;5008220;28;45472;-68
2022/08/05 10:20:53;;;;;;;;;8.00;7.00;;;;;40.45;18.73;101379.16;5014073;28;45600;-69
2022/08/05 10:23:28;;;;;;;;;9.67;9.67;;;;;39.64;19.49;101384.47;4998111;28;47378;-69
2022/08/05 10:25:55;;;;;;;;;8.00;7.00;;;;;38.64;20.10;101373.88;5014979;28;45408;-68
2022/08/05 10:28:21;;;;;;;;;11.67;10.67;;;;;37.90;21.00;101387.31;5012681;28;45684;-69
2022/08/05 10:30:47;;;;;;;;;8.33;8.00;;;;;37.21;22.06;101386.50;5009945;28;45278;-68
2022/08/05 10:33:12;;;;;;;;;8.00;8.00;;;;;36.60;22.83;101373.72;5009698;28;46668;-68
2022/08/05 10:35:38;;;;;;;;;15.67;10.67;;;;;36.27;22.92;101379.25;5015821;28;45432;-68
2022/08/05 10:38:04;;;;;;;;;8.00;8.00;;;;;35.57;23.89;101376.34;5014691;28;45455;-68
2022/08/05 10:40:45;;;;;;;;;7.67;7.67;;;;;35.14;24.83;101395.63;5015304;28;45429;-68
2022/08/05 10:43:16;;;;;;;;;8.33;8.33;;;;;34.55;25.46;101382.91;5002483;28;45776;-69
2022/08/05 10:45:41;;;;;;;;;9.33;6.33;;;;;34.17;24.96;101388.13;5002480;28;45810;-69
2022/08/05 10:48:40;;;;;;;;;9.00;7.67;;;;;33.77;25.42;101383.63;5016363;28;45501;-68
2022/08/05 10:51:20;;;;;;;;;4.33;4.33;;;;;33.33;26.01;101383.56;4994358;28;45503;-69
2022/08/05 10:53:56;;;;;;;;;6.33;6.33;;;;;32.97;26.44;101394.63;5015123;28;46629;-69
2022/08/05 10:56:24;;;;;;;;;8.00;8.00;;;;;32.47;27.12;101383.63;5010464;28;45499;-69
2022/08/05 10:59:05;;;;;;;;;1.00;0.00;;;;;31.97;27.73;101393.41;5012074;28;46134;-71
2022/08/05 11:01:43;;;;;;;;;7.67;7.00;;;;;31.43;28.72;101389.03;5016453;28;45597;-66
2022/08/05 11:04:08;;;;;;;;;7.00;6.00;;;;;30.62;30.16;101395.88;4995229;28;48530;-66
2022/08/05 11:06:55;;;;;;;;;7.00;7.00;;;;;30.52;30.35;101393.84;4997748;28;45531;-66
2022/08/05 11:09:22;;;;;;;;;14.33;13.00;;;;;30.59;30.62;101389.78;4999079;28;45270;-66
2022/08/05 11:11:49;;;;;;;;;8.33;7.67;;;;;30.63;30.85;101400.28;5013937;28;45665;-66
2022/08/05 11:14:27;;;;;;;;;8.33;7.67;;;;;30.56;30.18;101411.44;5016609;28;45703;-66
2022/08/05 11:17:27;;;;;;;;;7.67;7.67;;;;;30.54;30.36;101408.97;5010631;28;45557;-66
2022/08/05 11:19:54;;;;;;;;;8.00;8.00;;;;;30.34;30.62;101392.31;4999668;28;45326;-66
2022/08/05 11:22:39;;;;;;;;;8.00;8.00;;;;;30.19;30.84;101422.34;4998899;28;45468;-66
2022/08/05 11:25:31;;;;;;;;;6.00;6.00;;;;;30.11;30.42;101414.56;5008785;28;45794;-66
2022/08/05 11:28:16;;;;;;;;;9.33;7.00;;;;;29.68;31.26;101406.09;5016307;28;45453;-67
2022/08/05 11:30:57;;;;;;;;;7.67;7.33;;;;;29.53;31.58;101410.56;5016339;28;45414;-66
2022/08/05 11:33:25;;;;;;;;;10.67;8.67;;;;;29.45;31.97;101417.31;5018241;28;45168;-67
2022/08/05 11:36:07;;;;;;;;;9.67;7.67;;;;;29.28;31.71;101414.56;5017669;28;46793;-66